Comby, Texas
Current Conditions -  °F | °C
As of 3:52 AM on Monday 26 Jan 2015 (Local Time) from KHRL Reporting Station
Clear Clear  
Wind Chill: 50°   Ceiling: Unl
Heat Index: 50°   Visibility: 10mi
Dew Point: 43°   Wind: 7mph
Humidity: 77%   Direction: 300°WNW
Pressure: 30.22"   Gusts: NA
Location:  26.2542°N, 97.7326°W
Report Text: KHRL 260952Z AUTO 30006KT 10SM CLR 10/06 A3022 RMK AO2 SLP234 T01000061
Loading
Personal Weather Stations






























Interactive Weather Map New forecast layout! Learn more

10-Day Weather Forecast

Advertisements
Track Severe Weather on mobile